Terminal Aerodrome Forecast
Issued by NWS

Home | Current Version | Previous Version | Text Only | Print | Product List | Glossary On
Versions: 1 2 3 4 5 6 7 8 9 10 11 12 13 14 15 16 17
000
FTUS45 KRIW 300543
TAFJAC
TAF
KJAC 300543Z 3006/3106 VRB08G15KT P6SM VCTS SCT080CB BKN110
     FM300700 18008KT P6SM VCSH SCT080 BKN200
     FM301600 20014G20KT P6SM VCTS SCT070CB BKN200
     FM302000 21020G28KT P6SM SCT080
     FM310200 23012G18KT P6SM FEW110
      AMD LTD TO CLD VIS AND WIND=

USA.gov is the U.S. government's official web portal to all federal, state and local government web resources and services.